Latest Weather Observations for Troughton Island

IDW60801

Issued at 6:32 pm WST Tuesday 28 July 2015 (issued every 30 minutes, with the page automatically refreshed every 10 minutes)

About weather observations | Map of weather stations | Latest weather observations for WA | Other Formats
Station Details ID: 001007 Name: TROUGHTON ISLAND Lat: -13.75 Lon: 126.15 Height: 6.0 m
Data from the previous 72 hours. | See also: Recent months at Troughton Island
Date/Time
WST
Temp
°C
App
Temp
°C
Dew
Point
Rel
Hum
%
Delta-T
°C
Wind Press
QNH
hPa
Press
MSL
hPa
Rain
since 9 am
mm
Dir
 
Spd
km/h
Gust
km/h
Spd
kts
Gust
kts
28/06:02pm 25.1 22.8 18.5 67 4.2 NE 28 39 15 21 1017.0 - 0.0
28/06:00pm 25.1 22.7 18.3 66 4.3 NE 28 35 15 19 1017.0 1016.9 -
28/05:32pm 25.3 22.5 18.2 64 4.5 NE 30 37 16 20 1016.7 - 0.0
28/04:02pm 26.3 23.9 18.2 61 5.1 NE 28 35 15 19 1016.0 - 0.0
28/03:32pm 26.8 24.8 18.4 60 5.3 NE 26 33 14 18 1015.8 - 0.0
28/03:02pm 26.9 24.6 18.5 60 5.4 ENE 28 35 15 19 1015.8 - 0.0
28/03:00pm 26.9 24.6 18.5 60 5.4 ENE 28 - 15 - - 1015.7 0.0
28/02:32pm 27.1 24.1 17.8 56 5.9 ENE 30 35 16 19 1016.0 - 0.0
28/02:02pm 27.6 25.4 18.6 58 5.8 ENE 28 33 15 18 1016.3 - 0.0
28/01:32pm 27.3 24.6 17.5 55 6.2 ENE 28 33 15 18 1016.7 - 0.0
28/01:02pm 27.4 24.7 18.4 58 5.7 ENE 30 37 16 20 1017.1 - 0.0
28/12:32pm 27.6 25.2 18.3 57 5.9 ENE 28 33 15 18 1017.5 - 0.0
28/12:02pm 27.8 26.0 18.8 58 5.8 ENE 26 32 14 17 1018.2 - 0.0
28/12:00pm 27.6 25.6 18.3 57 5.9 E 26 - 14 - - 1018.1 -
28/11:32am 28.3 26.5 17.8 53 6.7 E 24 32 13 17 1018.7 - 0.0
28/11:02am 28.3 24.6 15.9 47 7.6 E 30 35 16 19 1019.0 - 0.0
28/10:32am 27.7 23.6 15.0 45 7.7 E 30 37 16 20 1019.4 - 0.0
28/10:02am 27.3 23.1 15.6 48 7.1 E 32 41 17 22 1019.6 - 0.0
28/09:32am 27.8 23.1 15.8 48 7.4 E 35 43 19 23 1019.8 - 0.0
28/09:02am 26.5 20.5 14.3 47 7.3 E 39 48 21 26 1020.0 - 0.0
28/09:00am 26.5 20.2 13.6 45 7.6 E 39 - 21 - - 1019.9 0.0
28/08:32am 26.2 20.2 14.3 48 7.1 E 39 48 21 26 1019.7 - 0.0
28/08:02am 26.3 19.5 14.4 48 7.1 E 43 52 23 28 1019.3 - 0.0
28/07:32am 26.1 20.8 15.2 51 6.6 E 37 48 20 26 1018.9 - 0.0
28/07:02am 25.9 21.0 15.3 52 6.4 E 35 44 19 24 1018.6 - 0.0
28/06:32am 25.6 20.8 15.6 54 6.1 E 35 44 19 24 1018.3 - 0.0
28/06:02am 25.2 21.2 16.3 57 5.5 E 32 39 17 21 1017.9 - 0.0
28/06:00am 25.2 21.5 16.9 60 5.1 E 32 35 17 19 1017.9 1017.8 -
28/05:32am 25.3 22.3 17.7 62 4.8 E 30 39 16 21 1017.4 - 0.0
28/05:02am 25.4 21.8 17.1 60 5.2 ESE 32 37 17 20 1017.2 - 0.0
28/04:32am 25.0 23.0 18.2 66 4.3 ESE 26 30 14 16 1017.0 - 0.0
28/04:02am 24.8 23.9 19.0 70 3.7 ESE 22 26 12 14 1016.8 - 0.0
28/03:32am 24.3 24.9 20.2 78 2.7 ESE 17 20 9 11 1016.6 - 0.0
28/03:02am 23.3 24.9 20.8 86 1.6 SE 13 17 7 9 1016.5 - 0.0
28/03:00am 23.3 24.9 20.8 86 1.6 SE 13 - 7 - - 1016.4 0.0
28/02:32am 22.8 25.2 21.6 93 0.8 SSE 11 13 6 7 1016.5 - 0.0
28/02:02am 23.2 26.1 21.8 92 0.9 S 9 11 5 6 1016.8 - 0.0
28/01:32am 24.1 27.0 22.5 91 1.1 S 11 13 6 7 1016.9 - 0.0
28/01:02am 24.0 26.8 22.3 90 1.1 S 11 11 6 6 1016.9 - 0.0
28/12:32am 24.0 26.7 22.1 89 1.3 S 11 11 6 6 1017.1 - 0.0
28/12:02am 24.2 27.0 23.0 93 0.8 S 13 13 7 7 1017.3 - 0.0
28/12:00am 24.2 27.4 23.0 93 0.8 S 11 13 6 7 1017.3 1017.2 -
 
Date/Time
WST
Temp
°C
App
Temp
°C
Dew
Point
Rel
Hum
%
Delta-T
°C
Wind Press
QNH
hPa
Press
MSL
hPa
Rain
since 9 am
mm
Dir
 
Spd
km/h
Gust
km/h
Spd
kts
Gust
kts
27/11:32pm 23.6 26.6 22.6 94 0.7 S 11 11 6 6 1017.4 - 0.0
27/11:02pm 23.7 26.8 22.1 91 1.1 S 9 9 5 5 1017.3 - 0.0
27/10:32pm 23.8 26.9 21.5 87 1.5 ESE 7 9 4 5 1017.3 - 0.0
27/10:02pm 24.9 28.5 22.4 86 1.7 ENE 7 9 4 5 1017.4 - 0.0
27/09:32pm 25.1 28.0 22.4 85 1.8 NE 11 13 6 7 1017.4 - 0.0
27/09:02pm 25.4 27.4 22.3 83 2.1 NE 15 17 8 9 1017.2 - 0.0
27/09:00pm 25.3 27.3 22.2 83 2.1 NE 15 - 8 - - 1017.1 0.0
27/08:32pm 25.3 27.0 22.4 84 1.9 NE 17 20 9 11 1017.1 - 0.0
27/08:02pm 25.4 26.6 22.5 84 2.0 NE 20 24 11 13 1017.0 - 0.0
27/07:32pm 25.6 26.8 22.5 83 2.1 NE 20 26 11 14 1017.0 - 0.0
27/07:02pm 25.5 26.8 22.4 83 2.1 NE 19 24 10 13 1016.8 - 0.0
27/06:32pm 25.5 26.9 22.6 84 2.0 NE 19 20 10 11 1016.6 - 0.0
27/06:02pm 25.8 27.2 22.5 82 2.2 NNE 19 24 10 13 1016.2 - 0.0
27/06:00pm 25.8 27.0 22.5 82 2.2 NNE 20 - 11 - - 1016.0 -
27/05:32pm 25.9 27.0 22.4 81 2.4 NNE 20 24 11 13 1015.8 - 0.0
27/05:02pm 26.3 27.4 22.4 79 2.6 NE 20 24 11 13 1015.5 - 0.0
27/04:32pm 27.1 27.8 22.3 75 3.2 NE 22 26 12 14 1015.2 - 0.0
27/04:02pm 27.5 27.4 21.5 70 4.0 NE 24 30 13 16 1015.1 - 0.0
27/03:32pm 28.3 27.8 20.8 63 5.0 NE 24 32 13 17 1015.0 - 0.0
27/03:02pm 29.5 29.3 21.2 61 5.5 NNE 24 30 13 16 1014.8 - 0.0
27/03:00pm 28.9 28.3 20.4 60 5.6 NNE 24 - 13 - - 1014.7 0.0
27/02:32pm 29.1 30.1 20.3 59 5.8 NE 15 19 8 10 1014.8 - 0.0
27/02:02pm 29.8 31.0 19.8 55 6.6 NE 13 15 7 8 1015.0 - 0.0
27/01:32pm 29.3 29.9 18.7 52 6.8 NNE 13 15 7 8 1015.3 - 0.0
27/01:02pm 29.2 29.3 17.4 49 7.5 NE 13 17 7 9 1015.6 - 0.0
27/12:32pm 29.4 30.0 17.6 49 7.5 NNE 11 15 6 8 1015.9 - 0.0
27/12:02pm 29.8 30.8 18.6 51 7.2 NNE 11 13 6 7 1016.2 - 0.0
27/12:00pm 29.6 30.4 18.1 50 7.3 NNE 11 - 6 - - 1016.2 -
27/11:32am 28.8 29.5 18.0 52 6.9 NE 11 15 6 8 1016.7 - 0.0
27/11:02am 29.1 29.4 17.0 48 7.6 E 11 13 6 7 1017.1 - 0.0
27/10:32am 29.2 29.8 17.7 50 7.3 E 11 13 6 7 1017.5 - 0.0
27/10:02am 28.6 29.1 19.2 56 6.1 SE 15 17 8 9 1018.0 - 0.0
27/09:32am 27.1 27.4 19.7 64 4.8 SSE 17 19 9 10 1018.1 - 0.0
27/09:02am 26.8 27.2 19.9 66 4.5 SE 17 20 9 11 1018.3 - 0.0
27/09:00am 27.2 27.7 20.0 64 4.7 SE 17 - 9 - - 1018.2 0.0
27/08:32am 26.4 26.5 20.0 68 4.2 SE 19 22 10 12 1018.3 - 0.0
27/08:02am 25.9 26.1 20.2 71 3.7 SE 19 20 10 11 1018.3 - 0.0
27/07:32am 25.2 26.3 21.3 79 2.6 SE 17 20 9 11 1018.2 - 0.0
27/07:02am 24.3 26.9 22.7 91 1.1 SE 13 17 7 9 1018.0 - 0.0
27/06:32am 23.4 26.7 23.2 99 0.1 SSE 11 13 6 7 1017.5 - 0.0
27/06:02am 23.0 26.2 23.0 100 0.0 SSE 11 13 6 7 1017.2 - 0.0
27/06:00am 23.0 26.2 23.0 100 0.0 SSE 11 - 6 - - 1017.1 -
27/05:32am 22.7 26.1 22.7 100 0.0 SSE 9 11 5 6 1017.0 - 0.0
27/05:02am 22.6 25.9 22.6 100 0.0 SSE 9 9 5 5 1016.9 - 0.0
27/04:32am 23.2 27.3 23.2 100 0.0 SSW 7 9 4 5 1016.8 - 0.0
27/04:02am 23.4 27.2 23.4 100 0.0 SSW 9 9 5 5 1016.6 - 0.0
27/03:32am 23.5 27.7 23.5 100 0.0 S 7 9 4 5 1016.4 - 0.0
27/03:02am 23.7 27.7 23.7 100 0.0 SSW 9 11 5 6 1016.4 - 0.0
27/03:00am 23.7 27.7 23.7 100 0.0 SSW 9 - 5 - - 1016.3 0.0
27/02:32am 23.6 27.4 23.4 99 0.1 SW 9 9 5 5 1016.6 - 0.0
27/02:02am 23.5 27.6 23.3 99 0.1 WSW 7 9 4 5 1016.7 - 0.0
27/01:32am 23.5 27.2 23.3 99 0.1 WSW 9 9 5 5 1017.0 - 0.0
27/01:02am 23.1 27.0 22.9 99 0.1 W 7 9 4 5 1017.1 - 0.0
27/12:32am 23.8 28.2 23.8 100 0.0 WSW 7 9 4 5 1017.5 - 0.0
27/12:02am 23.9 27.9 23.7 99 0.1 W 9 9 5 5 1017.7 - 0.0
27/12:00am 23.8 27.7 23.6 99 0.1 W 9 - 5 - - 1017.7 -
 
Date/Time
WST
Temp
°C
App
Temp
°C
Dew
Point
Rel
Hum
%
Delta-T
°C
Wind Press
QNH
hPa
Press
MSL
hPa
Rain
since 9 am
mm
Dir
 
Spd
km/h
Gust
km/h
Spd
kts
Gust
kts
26/11:32pm 23.8 27.7 23.6 99 0.1 WNW 9 11 5 6 1018.0 - 0.0
26/11:02pm 23.2 26.6 22.7 97 0.3 NW 9 9 5 5 1018.1 - 0.0
26/10:32pm 23.4 27.1 22.6 95 0.5 NW 7 9 4 5 1018.4 - 0.0
26/10:02pm 23.7 27.2 22.1 91 1.1 N 7 9 4 5 1018.5 - 0.0
26/09:32pm 24.3 28.3 22.7 91 1.1 N 6 7 3 4 1018.6 - 0.0
26/09:02pm 24.7 27.2 23.1 91 1.1 N 15 17 8 9 1018.3 - 0.0
26/09:00pm 24.7 27.2 23.1 91 1.1 N 15 - 8 - - 1018.2 0.0
26/08:32pm 24.8 27.9 22.9 89 1.3 N 11 13 6 7 1018.3 - 0.0
26/08:02pm 24.8 28.2 22.7 88 1.4 N 9 11 5 6 1018.3 - 0.0
26/07:32pm 25.1 28.2 22.8 87 1.6 N 11 13 6 7 1018.0 - 0.0
26/07:02pm 25.0 28.0 22.7 87 1.5 N 11 13 6 7 1017.5 - 0.0
26/06:32pm 25.2 28.5 22.5 85 1.8 N 9 13 5 7 1017.2 - 0.0
26/06:02pm 25.2 28.1 22.5 85 1.8 N 11 15 6 8 1016.8 - 0.0
26/06:00pm 25.3 28.3 22.6 85 1.8 N 11 - 6 - - 1016.6 -
26/05:32pm 25.7 28.3 22.0 80 2.5 N 11 15 6 8 1016.4 - 0.0
26/05:02pm 26.1 28.1 21.5 76 3.1 N 13 17 7 9 1015.9 - 0.0
26/04:32pm 26.2 27.7 21.2 74 3.3 N 15 19 8 10 1015.3 - 0.0
26/04:02pm 27.1 27.9 20.7 68 4.2 N 17 22 9 12 1015.0 - 0.0
26/03:32pm 27.0 27.1 20.3 66 4.4 N 20 26 11 14 1014.9 - 0.0
26/03:02pm 27.4 26.6 20.0 64 4.8 N 24 28 13 15 1014.9 - 0.0
26/03:00pm 28.4 28.1 20.4 62 5.3 N 22 - 12 - - 1014.8 0.0
26/02:32pm 28.0 27.3 18.7 57 6.0 N 20 24 11 13 1014.9 - 0.0
26/02:02pm 28.0 28.1 19.2 58 5.7 N 17 22 9 12 1014.9 - 0.0
26/01:32pm 29.3 30.1 19.0 53 6.7 NNW 13 17 7 9 1015.0 - 0.0
26/01:02pm 29.0 29.7 19.6 57 6.1 W 15 19 8 10 1015.1 - 0.0
26/12:32pm 29.2 29.2 19.8 57 6.2 WSW 19 20 10 11 1015.3 - 0.0
26/12:02pm 28.9 29.0 19.2 55 6.3 WSW 17 20 9 11 1015.6 - 0.0
26/12:00pm 28.9 28.8 19.5 57 6.1 WSW 19 - 10 - - 1015.5 -
26/11:32am 29.0 29.6 21.0 62 5.3 WSW 19 22 10 12 1016.0 - 0.0
26/11:02am 28.7 29.0 20.4 60 5.5 WSW 19 22 10 12 1016.3 - 0.0
26/10:32am 28.1 29.0 20.9 65 4.8 WSW 17 20 9 11 1016.7 - 0.0
26/10:02am 27.3 29.1 21.8 72 3.7 WSW 15 17 8 9 1017.1 - 0.0
26/09:32am 26.9 29.3 21.6 72 3.5 WSW 11 13 6 7 1017.4 - 0.0
26/09:02am 26.5 29.2 21.3 73 3.4 WSW 9 9 5 5 1017.6 - 0.0
26/09:00am 26.4 29.5 21.4 74 3.3 WSW 7 - 4 - - 1017.6 0.2
26/08:32am 26.1 28.8 20.7 72 3.5 WSW 7 9 4 5 1017.8 - 0.2
26/08:02am 26.1 29.0 21.7 77 2.9 SW 9 11 5 6 1017.7 - 0.2
26/07:32am 25.1 27.7 22.0 83 2.1 SSW 11 13 6 7 1017.7 - 0.2
26/07:02am 24.1 27.3 22.4 90 1.1 SSW 9 11 5 6 1017.4 - 0.2
26/06:32am 23.5 26.6 22.8 96 0.5 SSW 11 13 6 7 1017.2 - 0.2
26/06:02am 23.5 26.4 23.2 98 0.2 S 13 13 7 7 1017.0 - 0.0
26/06:00am 23.5 26.4 23.2 98 0.2 SSW 13 - 7 - - 1016.9 -
26/05:32am 23.4 26.3 23.1 98 0.2 SSW 13 15 7 8 1016.6 - 0.0
26/05:02am 23.5 26.8 23.2 98 0.2 SSW 11 13 6 7 1016.3 - 0.0
26/04:32am 23.6 26.6 23.3 98 0.2 SW 13 15 7 8 1016.1 - 0.0
26/04:02am 23.5 26.4 23.2 98 0.2 SW 13 15 7 8 1015.9 - 0.0
26/03:32am 23.5 26.9 23.3 99 0.1 SW 11 13 6 7 1015.7 - 0.0
26/03:02am 23.5 26.1 23.3 99 0.1 WSW 15 17 8 9 1015.8 - 0.0
26/03:00am 23.5 26.1 23.3 99 0.1 WSW 15 - 8 - - 1015.7 0.0
26/02:32am 23.3 26.7 23.3 100 0.0 SW 11 13 6 7 1016.0 - 0.0
26/02:02am 23.0 26.9 23.0 100 0.0 WSW 7 9 4 5 1016.3 - 0.0
26/01:32am 22.7 26.5 22.7 100 0.0 W 7 9 4 5 1016.4 - 0.0
26/01:02am 22.5 25.7 22.3 99 0.1 W 9 9 5 5 1016.7 - 0.0
26/12:32am 22.7 26.4 22.5 99 0.1 W 7 9 4 5 1017.0 - 0.0
26/12:02am 23.0 27.0 22.8 99 0.1 NW 6 6 3 3 1017.3 - 0.0
26/12:00am 22.9 26.9 22.7 99 0.1 NW 6 - 3 - - 1017.2 -
 
Date/Time
WST
Temp
°C
App
Temp
°C
Dew
Point
Rel
Hum
%
Delta-T
°C
Wind Press
QNH
hPa
Press
MSL
hPa
Rain
since 9 am
mm
Dir
 
Spd
km/h
Gust
km/h
Spd
kts
Gust
kts
25/11:32pm 23.0 26.9 22.5 97 0.3 NW 6 7 3 4 1017.5 - 0.0
25/11:02pm 23.2 26.9 22.5 96 0.5 NW 7 7 4 4 1017.6 - 0.0
25/10:32pm 23.0 26.6 22.3 96 0.5 WNW 7 7 4 4 1017.7 - 0.0
25/10:02pm 22.8 26.3 22.1 96 0.5 NW 7 9 4 5 1017.9 - 0.0
25/09:32pm 23.3 27.0 22.6 96 0.5 NW 7 9 4 5 1017.9 - 0.0
25/09:02pm 23.4 26.6 22.4 94 0.7 NNW 9 11 5 6 1017.8 - 0.0
25/09:00pm 23.5 26.9 22.7 95 0.5 NNW 9 - 5 - - 1017.6 0.0
25/08:32pm 23.3 26.5 22.3 94 0.7 NNW 9 11 5 6 1017.6 - 0.0
25/08:02pm 23.3 26.0 22.1 93 0.8 NNW 11 13 6 7 1017.5 - 0.0
25/07:32pm 23.6 26.3 22.2 92 0.9 NNW 11 13 6 7 1017.2 - 0.0
25/07:02pm 23.8 26.2 22.2 91 1.1 NNW 13 15 7 8 1016.7 - 0.0
25/06:32pm 24.2 26.7 22.5 90 1.1 NNW 13 17 7 9 1016.3 - 0.0

Other Formats:

Comma delimited format used in spreadsheet applications
http://www.bom.gov.au/fwo/IDW60801/IDW60801.94102.axf

JavaScript Object Notation format (JSON) in row-major order
http://www.bom.gov.au/fwo/IDW60801/IDW60801.94102.json